Time;durP1;ratioP1;P1;durP2;ratioP2;P2;SDS_P1;SDS_P2;PMS_P1;PMS_P2;Temp;Humidity;BMP_temperature;BMP_pressure;BME280_temperature;BME280_humidity;BME280_pressure;Samples;Min_cycle;Max_cycle;Signal;HPM_P1;HPM_P2
2024/01/06 00:00:15;;;;;;;6.05;2.53;;;;;;;6.91;75.17;62706.34;5087203;28;20224;-79
2024/01/06 00:02:43;;;;;;;6.18;3.28;;;;;;;7.00;72.89;62720.69;5084278;28;20235;-78
2024/01/06 00:05:10;;;;;;;8.27;3.40;;;;;;;6.96;74.05;62716.56;5085579;28;20221;-78
2024/01/06 00:07:37;;;;;;;4.13;2.53;;;;;;;6.97;72.99;62715.59;5088584;28;20264;-80
2024/01/06 00:10:04;;;;;;;2.63;2.30;;;;;;;7.00;72.61;62723.22;5088039;28;20216;-78
2024/01/06 00:12:31;;;;;;;3.88;2.42;;;;;;;7.04;73.20;62724.81;5086068;28;20224;-79
2024/01/06 00:14:58;;;;;;;3.25;2.00;;;;;;;6.90;74.01;62708.34;5090059;28;20303;-78
2024/01/06 00:17:25;;;;;;;2.05;1.95;;;;;;;6.92;73.84;62712.97;5090803;28;20204;-78
2024/01/06 00:19:54;;;;;;;3.05;1.95;;;;;;;6.93;73.13;62708.41;5088739;28;20216;-79
2024/01/06 00:22:23;;;;;;;1.55;1.20;;;;;;;6.80;75.81;62700.06;5093288;28;20184;-78
2024/01/06 00:24:50;;;;;;;1.75;1.65;;;;;;;6.57;74.93;62676.88;5091862;28;20232;-79
2024/01/06 00:27:18;;;;;;;3.90;2.15;;;;;;;6.80;73.59;62697.53;5088654;28;20204;-78
2024/01/06 00:29:44;;;;;;;2.88;1.70;;;;;;;6.83;74.59;62701.13;5090403;28;20240;-76
2024/01/06 00:32:11;;;;;;;5.20;1.77;;;;;;;6.86;73.76;62703.72;5089035;28;20224;-77
2024/01/06 00:34:38;;;;;;;2.65;1.60;;;;;;;6.90;73.25;62703.28;5088757;28;20291;-77
2024/01/06 00:37:06;;;;;;;1.67;1.38;;;;;;;6.92;71.68;62707.38;5090457;28;20205;-79
2024/01/06 00:39:33;;;;;;;1.73;1.60;;;;;;;6.94;72.26;62709.97;5092573;28;20220;-79
2024/01/06 00:42:00;;;;;;;1.63;1.45;;;;;;;6.85;73.76;62705.72;5089636;28;20478;-80
2024/01/06 00:44:27;;;;;;;1.63;1.55;;;;;;;6.86;71.74;62701.19;5088276;28;20216;-79
2024/01/06 00:46:54;;;;;;;2.08;1.98;;;;;;;6.85;71.30;62705.72;5090557;28;20193;-81
2024/01/06 00:49:21;;;;;;;1.58;1.48;;;;;;;6.86;71.16;62703.72;5089079;28;20287;-78
2024/01/06 00:51:48;;;;;;;1.80;1.63;;;;;;;6.79;72.74;62702.09;5091568;28;20555;-80
2024/01/06 00:54:16;;;;;;;2.55;2.05;;;;;;;6.77;74.28;62696.97;5092224;28;20216;-79
2024/01/06 00:56:43;;;;;;;1.63;1.52;;;;;;;6.57;75.70;62676.88;5092586;28;20516;-79
2024/01/06 00:59:10;;;;;;;1.58;1.10;;;;;;;6.65;76.29;62679.53;5084236;28;20510;-79
2024/01/06 01:01:36;;;;;;;3.70;2.58;;;;;;;6.57;77.28;62673.81;5070922;28;20197;-79
2024/01/06 01:04:04;;;;;;;5.97;3.83;;;;;;;6.61;77.84;62672.88;5074943;28;20251;-79
2024/01/06 01:06:31;;;;;;;3.75;3.00;;;;;;;6.63;77.92;62680.00;5091952;28;20231;-79
2024/01/06 01:08:58;;;;;;;3.17;2.10;;;;;;;6.64;77.71;62681.53;5090616;28;20516;-79
2024/01/06 01:11:26;;;;;;;3.00;2.80;;;;;;;6.62;78.64;62674.44;5091023;28;20271;-79
2024/01/06 01:13:53;;;;;;;4.78;3.30;;;;;;;6.64;79.53;62679.00;5085923;28;20209;-77
2024/01/06 01:16:20;;;;;;;4.60;2.38;;;;;;;6.55;80.71;62672.28;5090359;28;20310;-80
2024/01/06 01:18:47;;;;;;;2.42;2.30;;;;;;;6.53;82.01;62675.25;5089083;28;20208;-78
2024/01/06 01:21:15;;;;;;;2.47;2.25;;;;;;;6.51;82.25;62667.63;5091297;28;20188;-79
2024/01/06 01:23:43;;;;;;;2.22;2.00;;;;;;;6.50;81.74;62666.59;5086636;28;20264;-81
2024/01/06 01:26:09;;;;;;;4.40;1.98;;;;;;;6.46;85.64;62668.03;5086384;28;20189;-79
2024/01/06 01:28:38;;;;;;;2.30;2.10;;;;;;;6.43;84.46;62659.38;5086848;28;20189;-79
2024/01/06 01:31:04;;;;;;;3.85;2.80;;;;;;;6.38;85.47;62654.75;5088528;28;20416;-78
2024/01/06 01:33:31;;;;;;;2.58;2.38;;;;;;;6.38;85.33;62654.22;5089693;28;20211;-79
2024/01/06 01:35:58;;;;;;;3.85;2.38;;;;;;;6.39;83.41;62657.78;5091886;28;20212;-79
2024/01/06 01:38:25;;;;;;;1.98;1.67;;;;;;;6.37;84.20;62653.69;5089245;28;20210;-79
2024/01/06 01:40:53;;;;;;;2.13;1.75;;;;;;;6.40;84.29;62656.28;5089183;28;20217;-80
2024/01/06 01:43:20;;;;;;;1.85;1.75;;;;;;;6.41;85.56;62657.84;5087813;28;20205;-78
2024/01/06 01:45:51;;;;;;;2.85;2.03;;;;;;;6.43;85.54;62661.91;5074649;28;20225;-79
2024/01/06 01:48:18;;;;;;;5.18;2.45;;;;;;;6.43;85.46;62661.91;5068100;28;20247;-77
2024/01/06 01:50:45;;;;;;;3.65;2.17;;;;;;;6.44;86.12;62658.41;5092148;28;20234;-80
2024/01/06 01:53:12;;;;;;;3.00;1.50;;;;;;;6.48;84.58;62662.00;5089787;28;20254;-78
2024/01/06 01:55:39;;;;;;;6.65;1.88;;;;;;;6.52;83.89;62669.16;5089481;28;20220;-80
2024/01/06 01:58:07;;;;;;;2.42;1.70;;;;;;;6.57;84.35;62671.28;5086185;28;20197;-78
2024/01/06 02:00:33;;;;;;;3.65;2.28;;;;;;;6.58;85.35;62677.38;5089067;28;20243;-79
2024/01/06 02:03:02;;;;;;;2.42;2.22;;;;;;;6.61;85.91;62675.41;5088422;28;20189;-78
2024/01/06 02:05:28;;;;;;;5.28;2.30;;;;;;;6.67;83.54;62687.19;5086957;28;20223;-80
2024/01/06 02:07:55;;;;;;;2.58;2.40;;;;;;;6.69;85.08;62686.72;5091893;28;20214;-78
2024/01/06 02:10:22;;;;;;;5.72;2.40;;;;;;;6.60;85.22;62679.97;5090555;28;20216;-81
2024/01/06 02:12:51;;;;;;;6.32;2.35;;;;;;;6.63;87.52;62682.53;5087129;28;20250;-78
2024/01/06 02:15:19;;;;;;;3.95;2.70;;;;;;;6.61;88.00;62677.94;5088572;28;20204;-80
2024/01/06 02:17:46;;;;;;;2.80;1.92;;;;;;;6.70;86.96;62694.81;5088304;28;20196;-77
2024/01/06 02:20:14;;;;;;;2.13;1.92;;;;;;;6.63;86.82;62678.00;5087277;28;20537;-79
2024/01/06 02:22:43;;;;;;;4.68;2.10;;;;;;;6.61;87.54;62675.41;5089575;28;20201;-81
2024/01/06 02:25:12;;;;;;;3.15;2.03;;;;;;;6.55;89.45;62674.28;5088653;28;20217;-78
2024/01/06 02:27:39;;;;;;;4.57;1.52;;;;;;;6.56;91.43;62670.25;5088626;28;20430;-79
2024/01/06 02:30:07;;;;;;;2.17;2.08;;;;;;;6.56;92.02;62673.28;5083958;28;20217;-78
2024/01/06 02:32:34;;;;;;;3.20;2.58;;;;;;;6.50;91.91;62669.13;5088302;28;20228;-80
2024/01/06 02:35:01;;;;;;;4.10;2.08;;;;;;;6.36;92.91;62650.16;5086544;28;20454;-79
2024/01/06 02:37:29;;;;;;;3.45;2.50;;;;;;;6.39;93.35;62657.78;5089045;28;20224;-79
2024/01/06 02:39:57;;;;;;;5.63;2.88;;;;;;;6.35;93.76;62651.13;5087322;28;20427;-77
2024/01/06 02:42:25;;;;;;;4.90;2.10;;;;;;;6.32;95.09;62646.03;5086992;28;20252;-78
2024/01/06 02:44:52;;;;;;;2.70;2.20;;;;;;;6.36;92.43;62652.16;5083612;28;22752;-79
2024/01/06 02:47:19;;;;;;;2.38;2.10;;;;;;;6.26;93.07;62644.38;5088298;28;20204;-78
2024/01/06 02:49:46;;;;;;;2.28;1.90;;;;;;;6.32;92.66;62648.03;5088917;28;20472;-78
2024/01/06 02:52:13;;;;;;;2.25;2.03;;;;;;;6.32;93.11;62646.03;5088402;28;20228;-77
2024/01/06 02:54:40;;;;;;;3.67;2.17;;;;;;;6.39;92.59;62655.25;5085747;28;20232;-78
2024/01/06 02:57:08;;;;;;;3.42;2.30;;;;;;;6.38;91.63;62654.75;5086449;28;20192;-79
2024/01/06 02:59:35;;;;;;;2.47;2.28;;;;;;;6.44;92.55;62660.41;5089774;28;20216;-79
2024/01/06 03:02:02;;;;;;;2.25;1.90;;;;;;;6.44;92.13;62662.94;5087526;28;20266;-79
2024/01/06 03:04:29;;;;;;;2.60;2.22;;;;;;;6.44;92.43;62663.44;5080947;28;20220;-78
2024/01/06 03:06:56;;;;;;;4.22;2.00;;;;;;;6.48;92.47;62667.06;5086006;28;20197;-77
2024/01/06 03:09:23;;;;;;;3.03;2.70;;;;;;;6.40;93.71;62651.72;5089301;28;20243;-79
2024/01/06 03:11:50;;;;;;;4.00;1.90;;;;;;;6.42;93.98;62660.88;5086801;28;20440;-79
2024/01/06 03:14:21;;;;;;;2.00;1.90;;;;;;;6.42;93.90;62658.34;5069665;28;20240;-81
2024/01/06 03:16:48;;;;;;;2.20;1.77;;;;;;;6.49;93.28;62665.56;5067550;28;20200;-78
2024/01/06 03:19:14;;;;;;;1.65;1.55;;;;;;;6.45;92.74;62658.91;5082756;28;20212;-79
2024/01/06 03:21:41;;;;;;;2.15;2.05;;;;;;;6.34;91.95;62647.56;5087986;28;20211;-78
2024/01/06 03:24:08;;;;;;;2.30;2.10;;;;;;;6.37;91.90;62656.22;5088859;28;20220;-80
2024/01/06 03:26:35;;;;;;;2.67;2.03;;;;;;;6.39;91.14;62655.78;5084902;28;20200;-78
2024/01/06 03:29:03;;;;;;;5.45;2.80;;;;;;;6.46;89.32;62663.00;5088086;28;20246;-79
2024/01/06 03:31:31;;;;;;;2.75;2.20;;;;;;;6.41;90.67;62657.31;5089978;28;20216;-80
2024/01/06 03:33:58;;;;;;;1.60;1.50;;;;;;;6.35;90.42;62648.59;5073014;28;20233;-79
2024/01/06 03:36:25;;;;;;;1.92;1.83;;;;;;;6.34;90.86;62648.09;5069493;28;20363;-78
2024/01/06 03:38:52;;;;;;;3.35;2.08;;;;;;;6.34;92.07;62653.16;5067935;28;20209;-78
2024/01/06 03:41:19;;;;;;;3.00;2.05;;;;;;;6.29;90.84;62644.94;5072020;28;20197;-78
2024/01/06 03:43:46;;;;;;;1.50;1.40;;;;;;;6.35;89.89;62648.59;5084712;28;20212;-79
2024/01/06 03:46:13;;;;;;;2.45;2.00;;;;;;;6.32;91.11;62650.56;5087041;28;20189;-78
2024/01/06 03:48:41;;;;;;;2.53;2.28;;;;;;;5.98;94.89;62607.94;5084661;28;20193;-79
2024/01/06 03:51:08;;;;;;;7.05;2.10;;;;;;;5.99;96.30;62611.50;5069424;28;20404;-82
2024/01/06 03:53:35;;;;;;;1.98;1.77;;;;;;;6.08;93.88;62623.28;5068366;28;20232;-78
2024/01/06 03:56:02;;;;;;;2.03;1.45;;;;;;;6.06;93.73;62619.22;5070006;28;20224;-78
2024/01/06 03:58:29;;;;;;;1.80;1.70;;;;;;;6.10;94.26;62630.94;5085673;28;20197;-80
2024/01/06 04:00:56;;;;;;;4.63;2.28;;;;;;;6.15;94.13;62631.03;5087220;28;20297;-78
2024/01/06 04:03:23;;;;;;;3.70;2.47;;;;;;;6.10;94.67;62625.34;5086891;28;20197;-77
2024/01/06 04:05:51;;;;;;;2.47;2.28;;;;;;;6.11;92.30;62626.91;5086708;28;20463;-78
2024/01/06 04:08:18;;;;;;;4.05;2.25;;;;;;;6.20;92.42;62638.19;5081163;28;20235;-78
2024/01/06 04:10:45;;;;;;;2.45;2.25;;;;;;;6.20;91.10;62638.72;5065854;28;20217;-78
2024/01/06 04:13:12;;;;;;;2.63;2.53;;;;;;;6.17;92.70;62630.03;5074723;28;20266;-80
2024/01/06 04:15:39;;;;;;;7.00;2.72;;;;;;;6.04;91.97;62619.69;5086964;28;20220;-80
2024/01/06 04:18:06;;;;;;;4.13;2.83;;;;;;;6.16;91.29;62634.56;5089218;28;20197;-80
2024/01/06 04:20:33;;;;;;;2.70;2.50;;;;;;;6.10;94.36;62627.88;5086175;28;20224;-81
2024/01/06 04:23:02;;;;;;;2.50;2.30;;;;;;;6.06;94.51;62621.25;5087835;28;20271;-79
2024/01/06 04:25:29;;;;;;;2.70;2.33;;;;;;;6.01;95.90;62614.06;5088870;28;20254;-81
2024/01/06 04:27:56;;;;;;;2.20;2.10;;;;;;;5.91;96.97;62603.25;5083596;28;20197;-80
2024/01/06 04:30:24;;;;;;;3.17;2.28;;;;;;;5.84;97.57;62599.59;5086232;28;20398;-78
2024/01/06 04:32:51;;;;;;;4.00;2.80;;;;;;;5.73;96.16;62592.75;5089279;28;20238;-80
2024/01/06 04:35:18;;;;;;;3.78;2.90;;;;;;;5.66;97.05;62575.97;5085742;28;20221;-80
2024/01/06 04:37:46;;;;;;;3.80;2.83;;;;;;;5.81;96.73;62599.03;5086402;28;20231;-77
2024/01/06 04:40:15;;;;;;;3.55;2.40;;;;;;;5.84;95.83;62599.59;5087260;28;20244;-78
2024/01/06 04:42:42;;;;;;;4.20;2.70;;;;;;;5.90;96.88;62602.75;5085845;28;20426;-79
2024/01/06 04:45:09;;;;;;;2.33;2.00;;;;;;;5.82;96.90;62597.53;5081902;28;20217;-76
2024/01/06 04:47:36;;;;;;;2.78;2.58;;;;;;;5.76;97.92;62593.34;5086273;28;20197;-80
2024/01/06 04:50:03;;;;;;;3.05;2.75;;;;;;;5.81;98.06;62598.50;5087029;28;20208;-77
2024/01/06 04:52:30;;;;;;;2.63;2.15;;;;;;;5.84;96.99;62599.59;5086824;28;20228;-78
2024/01/06 04:54:58;;;;;;;2.17;2.08;;;;;;;5.82;97.91;62599.53;5086917;28;20228;-79
2024/01/06 04:57:26;;;;;;;2.45;2.25;;;;;;;5.86;97.48;62603.66;5086381;28;20254;-77
2024/01/06 04:59:53;;;;;;;5.15;2.70;;;;;;;5.83;98.28;62598.56;5085917;28;20318;-79
2024/01/06 05:02:20;;;;;;;3.20;2.38;;;;;;;5.81;97.77;62593.97;5089470;28;20192;-80
2024/01/06 05:04:48;;;;;;;4.55;2.60;;;;;;;5.82;97.53;62597.00;5093240;28;20216;-80
2024/01/06 05:07:14;;;;;;;4.20;3.55;;;;;;;5.82;97.98;62599.53;5091559;28;20207;-78
2024/01/06 05:09:41;;;;;;;4.13;3.38;;;;;;;5.82;97.70;62599.53;5090750;28;20221;-81
2024/01/06 05:12:09;;;;;;;5.68;3.40;;;;;;;5.83;97.86;62596.03;5090592;28;20248;-81
2024/01/06 05:14:38;;;;;;;6.32;3.53;;;;;;;5.83;97.51;62600.59;5073982;28;20483;-79
2024/01/06 05:17:05;;;;;;;3.88;3.58;;;;;;;5.81;98.01;62598.50;5071302;28;20202;-79
2024/01/06 05:19:32;;;;;;;5.38;3.53;;;;;;;5.74;99.68;62591.81;5087794;28;20266;-77
2024/01/06 05:21:59;;;;;;;5.20;3.80;;;;;;;5.66;100.00;62580.53;5090836;28;20204;-82
2024/01/06 05:24:26;;;;;;;4.18;2.85;;;;;;;5.20;100.00;62533.63;5092694;28;20238;-82
2024/01/06 05:26:53;;;;;;;3.83;3.38;;;;;;;5.07;100.00;62519.75;5090604;28;20264;-78
2024/01/06 05:29:21;;;;;;;3.22;3.03;;;;;;;5.08;100.00;62523.28;5088183;28;20266;-80
2024/01/06 05:31:49;;;;;;;5.65;3.00;;;;;;;5.15;100.00;62525.44;5090489;28;20193;-82
2024/01/06 05:34:16;;;;;;;3.63;3.30;;;;;;;4.86;100.00;62501.16;5092591;28;20251;-82
2024/01/06 05:36:43;;;;;;;8.77;4.18;;;;;;;4.90;100.00;62507.28;5092983;28;20501;-80
2024/01/06 05:39:10;;;;;;;2.92;2.72;;;;;;;4.92;100.00;62502.28;5090498;28;20228;-80
2024/01/06 05:41:40;;;;;;;3.70;3.15;;;;;;;4.95;100.00;62502.84;5092707;28;20197;-81
2024/01/06 05:44:07;;;;;;;2.72;2.53;;;;;;;4.92;100.00;62504.81;5087660;28;20247;-80
2024/01/06 05:46:35;;;;;;;3.70;2.85;;;;;;;5.12;100.00;62522.38;5090805;28;20200;-78
2024/01/06 05:49:04;;;;;;;6.55;2.80;;;;;;;5.15;100.00;62527.97;5091163;28;20200;-79
2024/01/06 05:51:31;;;;;;;3.28;2.75;;;;;;;5.05;100.00;62520.72;5070041;28;20239;-82
2024/01/06 05:53:58;;;;;;;3.25;2.55;;;;;;;5.14;100.00;62530.00;5084655;28;20229;-80
2024/01/06 05:56:26;;;;;;;4.63;2.17;;;;;;;5.18;100.00;62531.06;5090200;28;20205;-80
2024/01/06 05:58:53;;;;;;;3.38;2.53;;;;;;;5.23;100.00;62536.72;5090853;28;20354;-81
2024/01/06 06:01:20;;;;;;;2.47;2.28;;;;;;;5.19;100.00;62529.56;5088961;28;20216;-80
2024/01/06 06:03:47;;;;;;;3.17;2.83;;;;;;;5.19;100.00;62530.09;5091760;28;20192;-79
2024/01/06 06:06:15;;;;;;;3.67;2.58;;;;;;;5.21;100.00;62532.13;5080131;28;20193;-80
2024/01/06 06:08:43;;;;;;;2.78;2.20;;;;;;;5.21;100.00;62534.16;5088178;28;20197;-77
2024/01/06 06:11:11;;;;;;;1.98;1.70;;;;;;;5.31;100.00;62544.97;5088429;28;20201;-79
2024/01/06 06:13:39;;;;;;;3.00;2.10;;;;;;;5.38;100.00;62552.19;5087696;28;20228;-80
2024/01/06 06:16:07;;;;;;;4.78;2.60;;;;;;;5.17;100.00;62528.03;5088784;28;20572;-78
2024/01/06 06:18:34;;;;;;;4.32;2.60;;;;;;;5.18;100.00;62526.00;5087617;28;20197;-78
2024/01/06 06:21:03;;;;;;;5.15;3.15;;;;;;;5.17;100.00;62530.03;5088543;28;20224;-79
2024/01/06 06:23:31;;;;;;;4.88;3.08;;;;;;;5.13;100.00;62526.44;5088130;28;20246;-79
2024/01/06 06:25:59;;;;;;;3.72;3.10;;;;;;;5.13;100.00;62528.94;5085751;28;20306;-78
2024/01/06 06:28:26;;;;;;;3.15;2.65;;;;;;;5.12;100.00;62525.41;5088165;28;20232;-79
2024/01/06 06:30:54;;;;;;;7.15;2.85;;;;;;;5.16;100.00;62526.50;5086416;28;20227;-78
2024/01/06 06:33:21;;;;;;;2.20;2.10;;;;;;;5.22;100.00;62538.22;5088775;28;20248;-79
2024/01/06 06:35:49;;;;;;;2.75;2.40;;;;;;;5.25;100.00;62538.78;5087783;28;20369;-79
2024/01/06 06:38:16;;;;;;;2.47;2.28;;;;;;;5.23;100.00;62539.25;5083522;28;20515;-79
2024/01/06 06:40:44;;;;;;;4.45;2.72;;;;;;;5.28;100.00;62544.41;5086074;28;20232;-78
2024/01/06 06:43:11;;;;;;;6.85;2.60;;;;;;;5.37;100.00;62551.16;5083695;28;20269;-78
2024/01/06 06:45:38;;;;;;;2.47;2.38;;;;;;;5.35;100.00;62548.59;5083023;28;20446;-78
2024/01/06 06:48:06;;;;;;;4.57;2.42;;;;;;;5.42;100.00;62558.28;5072539;28;20516;-80
2024/01/06 06:50:33;;;;;;;2.30;2.17;;;;;;;5.33;100.00;62549.53;5087103;28;20360;-80
2024/01/06 06:53:00;;;;;;;4.55;2.65;;;;;;;5.47;100.00;62566.00;5088574;28;20247;-79
2024/01/06 06:55:28;;;;;;;4.03;2.65;;;;;;;5.60;100.00;62574.84;5086507;28;20212;-80
2024/01/06 06:57:56;;;;;;;2.63;2.28;;;;;;;5.68;100.00;62583.09;5086885;28;20200;-79
2024/01/06 07:00:23;;;;;;;2.45;2.25;;;;;;;5.57;100.00;62568.72;5084359;28;20303;-78
2024/01/06 07:02:50;;;;;;;2.53;1.67;;;;;;;5.68;100.00;62583.09;5086926;28;20201;-78
2024/01/06 07:05:17;;;;;;;2.65;2.10;;;;;;;5.78;100.00;62592.88;5084446;28;20268;-78
2024/01/06 07:07:46;;;;;;;2.03;1.92;;;;;;;5.85;100.00;62605.16;5087647;28;20204;-79
2024/01/06 07:10:13;;;;;;;2.70;2.50;;;;;;;5.95;100.00;62610.41;5088832;28;20264;-79
2024/01/06 07:12:40;;;;;;;3.45;2.58;;;;;;;6.03;100.00;62616.13;5082321;28;20256;-79
2024/01/06 07:15:11;;;;;;;3.35;3.05;;;;;;;6.04;100.00;62617.16;5083952;28;20216;-79
2024/01/06 07:17:38;;;;;;;3.30;3.00;;;;;;;6.02;100.00;62617.63;5086310;28;20196;-78
2024/01/06 07:20:06;;;;;;;2.28;2.13;;;;;;;6.13;100.00;62628.44;5087609;28;20208;-80
2024/01/06 07:22:34;;;;;;;4.68;3.60;;;;;;;6.23;100.00;62639.25;5085702;28;20201;-80
2024/01/06 07:25:01;;;;;;;2.80;2.30;;;;;;;6.37;100.00;62656.22;5083584;28;20216;-78
2024/01/06 07:27:28;;;;;;;2.85;2.20;;;;;;;6.41;99.59;62657.31;5088153;28;20203;-79
2024/01/06 07:29:56;;;;;;;5.05;2.53;;;;;;;6.50;99.35;62669.13;5083623;28;20321;-79
2024/01/06 07:32:25;;;;;;;2.28;2.17;;;;;;;6.64;99.36;62683.56;5081721;28;20199;-80
2024/01/06 07:34:52;;;;;;;3.38;1.95;;;;;;;6.63;96.29;62683.03;5087833;28;20224;-78
2024/01/06 07:37:19;;;;;;;2.75;2.20;;;;;;;6.66;94.73;62688.16;5084361;28;20195;-79
2024/01/06 07:39:46;;;;;;;2.03;1.90;;;;;;;6.78;95.71;62695.47;5084047;28;20402;-78
2024/01/06 07:42:16;;;;;;;3.88;2.55;;;;;;;6.91;95.87;62714.47;5072872;28;20216;-82
2024/01/06 07:44:45;;;;;;;2.67;2.42;;;;;;;6.69;93.11;62681.66;5087222;28;20533;-77
2024/01/06 07:47:12;;;;;;;2.60;2.40;;;;;;;7.01;89.77;62716.66;5086789;28;20386;-80
2024/01/06 07:49:41;;;;;;;1.90;1.80;;;;;;;6.99;90.73;62722.72;5086151;28;20240;-79
2024/01/06 07:52:08;;;;;;;8.05;2.75;;;;;;;7.16;91.91;62734.69;5087305;28;20253;-79
2024/01/06 07:54:34;;;;;;;2.72;2.45;;;;;;;7.19;90.72;62742.84;5086614;28;20258;-78
2024/01/06 07:57:02;;;;;;;5.05;2.97;;;;;;;7.28;91.13;62747.06;5087631;28;20505;-78
2024/01/06 07:59:29;;;;;;;4.45;2.55;;;;;;;7.52;91.47;62771.31;5085056;28;20224;-80
2024/01/06 08:01:56;;;;;;;3.80;2.65;;;;;;;7.49;89.94;62768.72;5084798;28;20240;-79
2024/01/06 08:04:23;;;;;;;3.03;2.72;;;;;;;7.54;88.56;62771.34;5087478;28;20232;-78
2024/01/06 08:06:51;;;;;;;1.98;1.88;;;;;;;7.69;88.30;62791.38;5087561;28;20200;-80
2024/01/06 08:09:18;;;;;;;3.47;2.45;;;;;;;7.78;85.60;62798.66;5087716;28;20217;-80
2024/01/06 08:11:47;;;;;;;6.00;3.72;;;;;;;7.76;83.86;62799.13;5088558;28;20196;-79
2024/01/06 08:14:17;;;;;;;7.05;4.18;;;;;;;7.55;82.98;62774.91;5085976;28;20232;-82
2024/01/06 08:16:44;;;;;;;3.83;3.53;;;;;;;7.83;83.38;62803.31;5082965;28;20201;-80
2024/01/06 08:19:10;;;;;;;5.03;4.20;;;;;;;7.90;85.31;62810.53;5090388;28;20216;-81
2024/01/06 08:21:37;;;;;;;4.82;4.10;;;;;;;7.73;82.51;62790.47;5084765;28;20197;-80
2024/01/06 08:24:07;;;;;;;4.38;3.92;;;;;;;7.66;84.84;62788.28;5087943;28;20529;-81
2024/01/06 08:26:34;;;;;;;8.18;4.72;;;;;;;7.59;84.72;62779.03;5087759;28;20551;-79
2024/01/06 08:29:01;;;;;;;7.15;4.97;;;;;;;7.49;87.50;62766.19;5090792;28;20225;-80
2024/01/06 08:31:28;;;;;;;6.95;5.05;;;;;;;7.62;88.02;62777.09;5091932;28;20496;-80
2024/01/06 08:33:55;;;;;;;6.05;4.40;;;;;;;7.58;88.15;62780.56;5091527;28;20231;-79
2024/01/06 08:36:22;;;;;;;8.13;4.90;;;;;;;7.61;88.40;62780.59;5092992;28;20208;-80
2024/01/06 08:38:49;;;;;;;7.05;5.40;;;;;;;7.35;89.16;62756.31;5092384;28;20216;-78
2024/01/06 08:41:17;;;;;;;7.60;4.80;;;;;;;7.39;90.76;62755.88;5093369;28;20219;-80
2024/01/06 08:43:44;;;;;;;10.18;4.85;;;;;;;7.44;91.16;62763.56;5091465;28;20207;-79
2024/01/06 08:46:11;;;;;;;6.18;4.75;;;;;;;7.64;91.33;62783.69;5098196;28;20193;-79
2024/01/06 08:48:38;;;;;;;5.25;4.68;;;;;;;7.88;89.96;62811.53;5094440;28;20196;-79
2024/01/06 08:51:06;;;;;;;6.55;4.93;;;;;;;8.13;88.66;62834.28;5092198;28;20275;-81
2024/01/06 08:53:33;;;;;;;5.35;4.85;;;;;;;8.22;86.44;62846.13;5090861;28;20269;-78
2024/01/06 08:56:00;;;;;;;5.88;4.32;;;;;;;8.31;83.02;62852.38;5090925;28;20285;-80
2024/01/06 08:58:28;;;;;;;8.95;4.60;;;;;;;8.50;81.69;62872.53;5091854;28;20196;-81
2024/01/06 09:00:55;;;;;;;6.35;4.50;;;;;;;8.71;81.05;62896.75;5095675;28;20266;-81
2024/01/06 09:03:24;;;;;;;4.78;4.28;;;;;;;8.67;80.50;62892.63;5093476;28;20216;-80
2024/01/06 09:05:52;;;;;;;3.25;2.95;;;;;;;8.78;80.61;62900.94;5093033;28;20215;-79
2024/01/06 09:08:19;;;;;;;9.10;4.03;;;;;;;8.91;79.29;62911.81;5090234;28;20385;-80
2024/01/06 09:10:47;;;;;;;7.70;2.78;;;;;;;8.97;78.56;62923.63;5091394;28;20209;-78
2024/01/06 09:13:14;;;;;;;2.95;2.05;;;;;;;9.01;75.62;62927.75;5091178;28;20478;-77
2024/01/06 09:15:43;;;;;;;2.22;2.13;;;;;;;9.18;77.04;62942.78;5092323;28;20224;-81
2024/01/06 09:18:10;;;;;;;3.72;2.10;;;;;;;9.26;74.42;62948.53;5090773;28;20196;-81
2024/01/06 09:20:37;;;;;;;3.13;2.35;;;;;;;9.33;74.30;62955.75;5093361;28;20545;-81
2024/01/06 09:23:04;;;;;;;3.85;2.58;;;;;;;9.40;73.61;62964.50;5092222;28;20197;-80
2024/01/06 09:25:31;;;;;;;2.53;2.35;;;;;;;9.46;73.42;62970.72;5092194;28;20227;-80
2024/01/06 09:27:59;;;;;;;2.60;2.40;;;;;;;9.56;73.85;62984.09;5091501;28;20433;-79
2024/01/06 09:30:26;;;;;;;4.47;2.00;;;;;;;9.62;73.13;62987.75;5091157;28;20236;-80
2024/01/06 09:32:54;;;;;;;4.95;2.90;;;;;;;9.60;72.42;62985.16;5097259;28;20224;-80
2024/01/06 09:35:23;;;;;;;2.33;2.22;;;;;;;9.63;73.56;62991.34;5092036;28;20232;-82
2024/01/06 09:37:50;;;;;;;2.33;2.13;;;;;;;9.64;73.40;62989.31;5090607;28;20209;-82
2024/01/06 09:40:21;;;;;;;2.53;2.33;;;;;;;9.77;71.53;63005.28;5090541;28;20407;-80
2024/01/06 09:42:49;;;;;;;6.22;2.63;;;;;;;9.85;71.20;63011.56;5091383;28;20196;-80
2024/01/06 09:45:16;;;;;;;4.72;2.78;;;;;;;9.90;72.07;63019.28;5090647;28;20238;-79
2024/01/06 09:47:43;;;;;;;2.53;2.33;;;;;;;9.84;71.24;63007.97;5094175;28;20379;-79
2024/01/06 09:50:11;;;;;;;5.20;3.65;;;;;;;9.92;71.90;63021.31;5090365;28;20370;-79
2024/01/06 09:52:41;;;;;;;3.45;3.15;;;;;;;9.92;71.49;63018.78;5091727;28;20313;-79
2024/01/06 09:55:09;;;;;;;3.72;3.42;;;;;;;10.07;71.78;63036.84;5089876;28;20232;-78
2024/01/06 09:57:36;;;;;;;3.67;3.33;;;;;;;10.07;69.45;63033.78;5090048;28;20197;-80
2024/01/06 10:00:04;;;;;;;4.90;3.90;;;;;;;10.11;68.99;63038.47;5091428;28;20216;-79
2024/01/06 10:02:31;;;;;;;6.65;4.70;;;;;;;10.26;69.44;63056.53;5090517;28;20196;-79
2024/01/06 10:04:58;;;;;;;9.07;6.85;;;;;;;10.15;69.01;63044.63;5093655;28;20216;-81
2024/01/06 10:07:27;;;;;;;8.95;5.88;;;;;;;10.12;70.42;63036.97;5094674;28;20256;-83
2024/01/06 10:09:56;;;;;;;7.43;4.43;;;;;;;10.30;69.76;63060.66;5094066;28;20415;-82
2024/01/06 10:12:24;;;;;;;8.93;4.95;;;;;;;10.36;69.08;63066.88;5092519;28;20212;-80
2024/01/06 10:14:51;;;;;;;7.97;3.83;;;;;;;10.28;69.66;63053.53;5094974;28;20243;-80
2024/01/06 10:17:19;;;;;;;4.97;3.78;;;;;;;10.38;70.17;63066.41;5093095;28;20232;-80
2024/01/06 10:19:47;;;;;;;6.90;3.67;;;;;;;10.14;68.58;63041.06;5093084;28;20223;-78
2024/01/06 10:22:14;;;;;;;3.95;3.30;;;;;;;10.26;70.31;63050.91;5089827;28;20193;-79
2024/01/06 10:24:42;;;;;;;5.13;4.20;;;;;;;10.29;70.76;63062.19;5090678;28;20575;-81
2024/01/06 10:27:09;;;;;;;4.60;4.20;;;;;;;10.28;71.56;63050.97;5090157;28;20412;-81
2024/01/06 10:29:36;;;;;;;4.68;4.20;;;;;;;10.33;71.49;63061.22;5092776;28;20270;-81
2024/01/06 10:32:04;;;;;;;8.27;4.53;;;;;;;10.23;69.91;63048.31;5090406;28;20242;-80
2024/01/06 10:34:32;;;;;;;6.57;5.88;;;;;;;10.09;72.88;63038.94;5090992;28;20420;-80
2024/01/06 10:36:59;;;;;;;8.02;5.47;;;;;;;10.34;73.68;63059.72;5090478;28;20195;-80
2024/01/06 10:39:26;;;;;;;8.85;6.80;;;;;;;10.44;72.10;63074.63;5090368;28;20224;-81
2024/01/06 10:41:54;;;;;;;20.20;11.43;;;;;;;10.40;72.73;63068.47;5092348;28;20192;-80
2024/01/06 10:44:21;;;;;;;17.42;12.80;;;;;;;10.29;74.32;63054.03;5091026;28;20379;-79
2024/01/06 10:46:49;;;;;;;16.35;10.73;;;;;;;10.41;74.77;63068.97;5090196;28;20196;-81
2024/01/06 10:49:16;;;;;;;22.63;12.57;;;;;;;10.44;74.95;63070.06;5090246;28;20238;-80
2024/01/06 10:51:42;;;;;;;29.20;18.73;;;;;;;10.28;77.62;63056.06;5088770;28;20537;-80
2024/01/06 10:54:09;;;;;;;32.13;18.10;;;;;;;10.42;77.69;63070.53;5089849;28;20232;-81
2024/01/06 10:56:37;;;;;;;29.33;18.20;;;;;;;10.41;76.88;63066.97;5090982;28;20200;-80
2024/01/06 10:59:07;;;;;;;30.58;18.92;;;;;;;10.22;79.19;63052.38;5090777;28;20216;-80
2024/01/06 11:01:34;;;;;;;32.08;19.73;;;;;;;9.83;79.88;63008.97;5090526;28;20231;-81
2024/01/06 11:04:01;;;;;;;28.38;19.20;;;;;;;9.44;84.86;62966.59;5089699;28;20208;-80
2024/01/06 11:06:28;;;;;;;33.95;19.75;;;;;;;9.60;85.35;62987.72;5089191;28;20424;-80
2024/01/06 11:09:00;;;;;;;41.38;20.65;;;;;;;9.87;82.92;63011.06;5090650;28;20507;-80
2024/01/06 11:11:27;;;;;;;31.05;18.85;;;;;;;9.97;83.89;63023.44;5092094;28;20238;-80
2024/01/06 11:13:54;;;;;;;28.90;17.50;;;;;;;10.11;82.93;63037.94;5094594;28;20206;-80
2024/01/06 11:16:38;;;;;;;22.92;15.73;;;;;;;10.05;82.86;63029.69;5090273;28;20196;-80
2024/01/06 11:19:35;;;;;;;31.38;16.38;;;;;;;10.06;82.91;63032.75;5090401;28;20234;-79
2024/01/06 11:22:20;;;;;;;24.80;13.63;;;;;;;10.33;81.10;63063.78;5089408;28;20201;-80
2024/01/06 11:24:48;;;;;;;18.10;10.98;;;;;;;10.43;75.72;63076.66;5088138;28;20239;-79
2024/01/06 11:27:18;;;;;;;13.27;9.77;;;;;;;10.65;73.50;63096.38;5090112;28;20197;-81
2024/01/06 11:29:46;;;;;;;13.13;10.00;;;;;;;10.80;72.23;63108.84;5091285;28;20231;-80
2024/01/06 11:32:21;;;;;;;38.60;25.08;;;;;;;10.73;71.22;63104.13;5089921;28;20200;-80
2024/01/06 11:34:50;;;;;;;19.85;11.52;;;;;;;10.51;70.33;63083.91;5088885;28;20365;-80
2024/01/06 11:37:19;;;;;;;17.63;10.27;;;;;;;10.23;71.39;63050.38;5091363;28;20200;-79